Аэропорт: Львов имени Даниила Галицкого. Львов

ICAO: UKLL

METAR:
2019/01/21 23:00
UKLL 212300Z 21002MPS 9999 OVC033 M05/M07 Q1020 R13/190070 NOSIG
METAR:
2019/01/21 18:15
TAF UKLL 211703Z 2118/2218 VRB01MPS 2100 BR OVC007 TXM02/2212Z TNM06/2204Z 
      TEMPO 2118/2206 0500 -SN FZFG OVC003 
      BECMG 2206/2207 16004MPS 6000 NSW BKN010